Time;durP1;ratioP1;P1;durP2;ratioP2;P2;SDS_P1;SDS_P2;PMS_P1;PMS_P2;Temp;Humidity;BMP_temperature;BMP_pressure;BME280_temperature;BME280_humidity;BME280_pressure;Samples;Min_cycle;Max_cycle;Signal;HPM_P1;HPM_P2
2023/05/10 00:00:34;;;;;;;15.48;8.93;;;;;;;9.38;55.42;149652.81;5063494;28;20033;-66
2023/05/10 00:03:00;;;;;;;18.67;9.00;;;;;;;9.27;56.42;149627.19;5063994;28;20199;-66
2023/05/10 00:05:25;;;;;;;17.15;7.95;;;;;;;9.28;56.31;149628.50;5063569;28;20052;-66
2023/05/10 00:07:51;;;;;;;12.50;8.05;;;;;;;9.28;56.32;149629.78;5051431;28;20144;-65
2023/05/10 00:10:16;;;;;;;18.05;8.43;;;;;;;9.30;55.04;149634.88;5051766;28;20102;-65
2023/05/10 00:12:42;;;;;;;13.98;8.70;;;;;;;9.25;56.44;149622.09;5063744;28;20037;-65
2023/05/10 00:15:08;;;;;;;18.27;9.82;;;;;;;9.26;56.06;149623.34;5064000;28;20033;-65
2023/05/10 00:17:34;;;;;;;13.57;8.52;;;;;;;9.27;56.47;149627.19;5063502;28;20025;-66
2023/05/10 00:20:00;;;;;;;12.88;8.18;;;;;;;9.24;56.41;149618.25;5049988;28;20104;-66
2023/05/10 00:22:26;;;;;;;15.73;8.70;;;;;;;9.22;56.18;149614.41;5061230;28;20213;-65
2023/05/10 00:24:51;;;;;;;15.32;7.97;;;;;;;9.21;56.67;149611.84;5062666;28;20037;-66
2023/05/10 00:27:17;;;;;;;14.02;8.75;;;;;;;9.09;57.78;149582.41;5063605;28;20029;-66
2023/05/10 00:29:42;;;;;;;13.85;9.02;;;;;;;9.05;57.73;149570.81;5055493;28;20066;-65
2023/05/10 00:32:08;;;;;;;17.35;9.32;;;;;;;9.06;57.22;149574.66;5063352;28;20035;-67
2023/05/10 00:34:33;;;;;;;18.77;8.73;;;;;;;9.16;57.62;149599.00;5060818;28;20041;-65
2023/05/10 00:36:59;;;;;;;16.60;9.55;;;;;;;9.18;57.77;149602.84;5058227;28;20092;-65
2023/05/10 00:39:26;;;;;;;14.57;9.43;;;;;;;9.21;57.90;149610.56;5050232;28;20457;-66
2023/05/10 00:41:51;;;;;;;23.08;9.35;;;;;;;9.23;57.72;149616.94;5063314;28;20088;-65
2023/05/10 00:44:18;;;;;;;14.57;8.57;;;;;;;9.22;58.43;149613.09;5047094;28;20035;-65
2023/05/10 00:46:44;;;;;;;18.17;9.63;;;;;;;9.12;59.30;149588.75;5062173;28;20069;-65
2023/05/10 00:49:10;;;;;;;16.13;9.25;;;;;;;9.13;59.13;149591.34;5063426;28;20363;-66
2023/05/10 00:51:36;;;;;;;17.58;9.43;;;;;;;9.13;58.44;149592.59;5042638;28;20198;-66
2023/05/10 00:54:02;;;;;;;20.02;9.38;;;;;;;9.17;58.67;149600.31;5058386;28;20021;-66
2023/05/10 00:56:29;;;;;;;16.67;9.70;;;;;;;9.12;59.73;149588.75;5054995;28;20040;-66
2023/05/10 00:58:55;;;;;;;18.58;9.20;;;;;;;9.06;58.31;149573.41;5063302;28;20021;-66
2023/05/10 01:01:21;;;;;;;19.40;9.73;;;;;;;9.11;58.92;149586.22;5062970;28;20209;-66
2023/05/10 01:03:47;;;;;;;17.98;9.48;;;;;;;9.07;58.70;149577.25;5078470;28;20049;-66
2023/05/10 01:06:13;;;;;;;15.48;9.60;;;;;;;9.08;58.57;149579.81;5063059;28;20059;-65
2023/05/10 01:08:39;;;;;;;18.85;8.88;;;;;;;9.06;58.77;149574.66;5063230;28;20363;-66
2023/05/10 01:11:05;;;;;;;16.30;9.50;;;;;;;9.08;58.91;149578.56;5063167;28;20021;-65
2023/05/10 01:13:40;;;;;;;17.30;9.70;;;;;;;9.12;59.43;149588.75;5053429;28;20214;-65
2023/05/10 01:16:06;;;;;;;20.13;9.80;;;;;;;9.03;58.75;149567.00;5048511;28;20025;-65
2023/05/10 01:18:40;;;;;;;17.42;10.38;;;;;;;9.02;58.76;149564.47;5061546;28;20044;-66
2023/05/10 01:21:20;;;;;;;14.98;9.25;;;;;;;9.00;59.39;149558.03;5062920;28;20024;-66
2023/05/10 01:24:04;;;;;;;13.95;9.13;;;;;;;9.03;57.84;149567.00;5043033;28;20040;-66
2023/05/10 01:27:08;;;;;;;16.63;9.85;;;;;;;9.02;59.73;149564.47;5060098;28;20036;-65
2023/05/10 01:30:06;;;;;;;14.25;9.38;;;;;;;9.00;60.08;149559.31;5054857;28;20037;-65
2023/05/10 01:32:53;;;;;;;15.77;9.38;;;;;;;9.06;60.30;149574.66;5044455;28;20370;-65
2023/05/10 01:35:41;;;;;;;19.27;9.63;;;;;;;9.00;60.91;149558.03;5056990;28;20374;-65
2023/05/10 01:38:19;;;;;;;18.65;10.27;;;;;;;8.93;60.14;149541.38;5055396;28;20094;-65
2023/05/10 01:41:05;;;;;;;20.50;9.77;;;;;;;8.98;60.34;149554.22;5065688;28;20048;-66
2023/05/10 01:43:40;;;;;;;13.32;8.57;;;;;;;8.89;60.95;149531.13;5053009;28;20068;-67
2023/05/10 01:46:10;;;;;;;14.43;8.82;;;;;;;8.92;60.79;149538.81;5050258;28;20033;-65
2023/05/10 01:48:46;;;;;;;17.10;9.43;;;;;;;8.92;60.75;149538.81;5043932;28;20032;-64
2023/05/10 01:51:15;;;;;;;18.95;8.95;;;;;;;8.94;60.55;149543.94;5062011;28;20028;-65
2023/05/10 01:53:43;;;;;;;17.27;8.48;;;;;;;8.94;59.68;149545.22;5061994;28;20025;-65
2023/05/10 01:56:11;;;;;;;19.48;9.50;;;;;;;9.04;59.23;149568.31;5061916;28;20286;-66
2023/05/10 01:58:42;;;;;;;18.35;8.95;;;;;;;9.05;60.16;149570.81;5052499;28;20017;-66
2023/05/10 02:01:09;;;;;;;15.57;9.20;;;;;;;9.08;59.04;149579.81;5042940;28;20049;-65
2023/05/10 02:03:36;;;;;;;13.23;8.48;;;;;;;9.07;59.33;149577.25;5042963;28;20070;-65
2023/05/10 02:06:04;;;;;;;14.32;9.23;;;;;;;9.01;59.46;149561.88;5060573;28;20060;-64
2023/05/10 02:08:31;;;;;;;14.43;8.25;;;;;;;9.09;58.55;149581.06;5044833;28;20021;-66
2023/05/10 02:10:58;;;;;;;17.83;8.48;;;;;;;9.10;57.68;149584.91;5054043;28;20025;-66
2023/05/10 02:13:26;;;;;;;14.15;7.95;;;;;;;9.08;57.61;149579.81;5039058;28;20091;-65
2023/05/10 02:15:53;;;;;;;18.63;8.45;;;;;;;9.15;58.59;149597.75;5057756;28;20310;-65
2023/05/10 02:18:19;;;;;;;12.20;8.00;;;;;;;9.20;56.88;149608.00;5041748;28;20076;-65
2023/05/10 02:20:47;;;;;;;15.60;7.85;;;;;;;9.09;56.09;149582.41;5060594;28;20025;-65
2023/05/10 02:23:13;;;;;;;14.18;7.28;;;;;;;9.12;56.07;149588.75;5047167;28;20375;-65
2023/05/10 02:25:40;;;;;;;15.90;7.82;;;;;;;9.18;56.29;149604.16;5051585;28;20056;-66
2023/05/10 02:28:07;;;;;;;14.90;7.85;;;;;;;9.25;57.32;149622.09;5056443;28;20030;-64
2023/05/10 02:30:34;;;;;;;18.10;9.07;;;;;;;9.23;56.81;149616.94;5040150;28;20037;-65
2023/05/10 02:33:02;;;;;;;16.02;8.30;;;;;;;9.26;58.33;149624.66;5041857;28;20025;-67
2023/05/10 02:35:29;;;;;;;15.30;8.75;;;;;;;9.28;59.19;149628.50;5057424;28;20086;-66
2023/05/10 02:37:56;;;;;;;14.80;8.18;;;;;;;9.28;59.37;149628.50;5051799;28;20021;-65
2023/05/10 02:40:23;;;;;;;15.82;8.85;;;;;;;9.28;57.56;149628.50;5065472;28;20104;-65
2023/05/10 02:42:52;;;;;;;14.02;8.63;;;;;;;9.28;56.58;149629.78;5041719;28;20253;-66
2023/05/10 02:45:21;;;;;;;12.20;7.85;;;;;;;9.36;56.61;149648.97;5041435;28;20021;-65
2023/05/10 02:47:48;;;;;;;14.77;7.15;;;;;;;9.37;56.22;149651.53;5061604;28;20032;-65
2023/05/10 02:50:14;;;;;;;11.23;7.25;;;;;;;9.40;53.97;149659.22;5061179;28;20024;-67
2023/05/10 02:52:47;;;;;;;10.30;6.93;;;;;;;9.35;53.64;149646.44;5053292;28;20286;-66
2023/05/10 02:55:15;;;;;;;14.52;7.82;;;;;;;9.48;54.95;149679.75;5040447;28;20025;-65
2023/05/10 02:57:46;;;;;;;15.88;8.15;;;;;;;9.46;56.38;149673.31;5059670;28;20318;-65
2023/05/10 03:00:12;;;;;;;13.17;8.33;;;;;;;9.45;57.23;149672.06;5041362;28;20029;-64
2023/05/10 03:02:38;;;;;;;16.08;7.97;;;;;;;9.56;55.07;149697.69;5060403;28;20642;-65
2023/05/10 03:05:04;;;;;;;10.55;6.82;;;;;;;9.58;53.04;149704.09;5061253;28;20061;-65
2023/05/10 03:07:29;;;;;;;15.48;7.00;;;;;;;9.56;53.79;149697.69;5053671;28;20264;-66
2023/05/10 03:09:55;;;;;;;13.90;7.57;;;;;;;9.65;53.67;149720.75;5058033;28;20030;-66
2023/05/10 03:12:32;;;;;;;24.63;9.95;;;;;;;9.49;55.97;149682.31;5057984;28;20032;-67
2023/05/10 03:15:06;;;;;;;25.42;10.52;;;;;;;9.65;55.26;149720.75;5043895;28;20029;-65
2023/05/10 03:17:56;;;;;;;14.95;8.15;;;;;;;9.62;54.95;149713.03;5062928;28;20040;-66
2023/05/10 03:20:31;;;;;;;17.83;8.45;;;;;;;9.61;54.39;149710.50;5064632;28;20095;-66
2023/05/10 03:23:08;;;;;;;11.35;6.90;;;;;;;9.67;51.54;149725.88;5064837;28;20057;-66
2023/05/10 03:25:34;;;;;;;18.40;7.85;;;;;;;9.84;53.74;149769.44;5064503;28;20025;-66
2023/05/10 03:28:02;;;;;;;17.55;8.27;;;;;;;9.80;54.59;149759.16;5064661;28;20364;-66
2023/05/10 03:30:28;;;;;;;13.80;7.68;;;;;;;9.85;54.46;149772.00;5064291;28;20029;-65
2023/05/10 03:32:54;;;;;;;9.80;6.72;;;;;;;9.89;53.09;149779.69;5045043;28;20025;-66
2023/05/10 03:35:19;;;;;;;14.65;7.22;;;;;;;9.96;53.57;149798.94;5059172;28;20298;-68
2023/05/10 03:37:45;;;;;;;16.15;7.35;;;;;;;10.02;53.62;149813.03;5054539;28;20088;-64
2023/05/10 03:40:11;;;;;;;13.10;6.88;;;;;;;10.01;52.57;149810.47;5059225;28;20098;-65
2023/05/10 03:42:36;;;;;;;13.95;6.22;;;;;;;10.09;51.67;149829.69;5063674;28;20028;-66
2023/05/10 03:45:02;;;;;;;14.10;7.03;;;;;;;10.10;52.76;149833.53;5049795;28;20035;-64
2023/05/10 03:47:29;;;;;;;12.80;6.65;;;;;;;9.91;53.02;149784.84;5048173;28;20337;-64
2023/05/10 03:49:55;;;;;;;13.85;6.57;;;;;;;10.15;51.72;149846.34;5055724;28;20029;-67
2023/05/10 03:52:21;;;;;;;9.68;6.00;;;;;;;10.21;49.67;149859.19;5039697;28;20234;-67
2023/05/10 03:54:46;;;;;;;10.93;5.85;;;;;;;10.26;48.99;149872.00;5046245;28;20080;-67
2023/05/10 03:57:12;;;;;;;13.13;6.53;;;;;;;10.33;48.74;149891.25;5064111;28;20055;-67
2023/05/10 03:59:37;;;;;;;7.47;5.85;;;;;;;10.33;48.06;149889.94;5047094;28;20123;-67
2023/05/10 04:02:03;;;;;;;11.57;5.90;;;;;;;10.44;47.91;149916.94;5058424;28;20028;-65
2023/05/10 04:04:28;;;;;;;12.05;5.90;;;;;;;10.47;48.08;149925.88;5064013;28;20262;-65
2023/05/10 04:06:55;;;;;;;10.50;5.80;;;;;;;10.53;47.72;149941.31;5061163;28;20050;-65
2023/05/10 04:09:21;;;;;;;11.82;5.60;;;;;;;10.56;47.54;149946.41;5061130;28;20029;-65
2023/05/10 04:11:46;;;;;;;11.07;6.10;;;;;;;10.61;46.82;149959.25;5063995;28;20029;-65
2023/05/10 04:14:12;;;;;;;8.82;5.60;;;;;;;10.67;47.20;149975.94;5064019;28;20096;-65
2023/05/10 04:16:37;;;;;;;8.75;5.32;;;;;;;10.74;46.69;149991.31;5054900;28;20044;-66
2023/05/10 04:19:03;;;;;;;12.82;5.65;;;;;;;10.76;46.88;149996.44;5027017;28;20080;-65
2023/05/10 04:21:30;;;;;;;7.40;5.18;;;;;;;10.85;46.33;150019.53;5053438;28;20075;-65
2023/05/10 04:23:55;;;;;;;10.73;5.30;;;;;;;10.85;46.01;150019.53;5043234;28;20103;-65
2023/05/10 04:26:21;;;;;;;12.75;5.38;;;;;;;10.75;45.25;149993.91;5058011;28;20109;-65
2023/05/10 04:28:47;;;;;;;8.98;5.40;;;;;;;11.00;44.91;150058.03;5063885;28;20025;-64
2023/05/10 04:31:13;;;;;;;9.45;4.80;;;;;;;11.06;44.89;150072.13;5063201;28;20021;-66
2023/05/10 04:33:38;;;;;;;9.23;5.13;;;;;;;11.03;44.44;150065.72;5063665;28;20029;-65
2023/05/10 04:36:04;;;;;;;10.93;5.22;;;;;;;11.17;43.08;150100.38;5062269;28;20025;-65
2023/05/10 04:38:30;;;;;;;11.35;4.82;;;;;;;11.23;42.96;150115.75;5047658;28;20302;-64
2023/05/10 04:41:10;;;;;;;10.77;4.72;;;;;;;11.29;42.85;150128.59;5064611;28;20044;-65
2023/05/10 04:43:36;;;;;;;10.63;4.43;;;;;;;11.32;42.36;150136.28;5063472;28;20482;-65
2023/05/10 04:46:02;;;;;;;9.68;4.15;;;;;;;11.46;42.39;150170.91;5062797;28;20341;-66
2023/05/10 04:48:27;;;;;;;10.13;4.43;;;;;;;11.50;41.84;150181.16;5062911;28;20025;-66
2023/05/10 04:50:53;;;;;;;8.55;4.07;;;;;;;11.53;41.94;150190.19;5062954;28;20106;-66
2023/05/10 04:53:19;;;;;;;8.07;3.88;;;;;;;11.62;41.18;150210.72;5062679;28;20076;-66
2023/05/10 04:55:45;;;;;;;6.95;3.70;;;;;;;11.60;41.02;150205.56;5062864;28;20047;-65
2023/05/10 04:58:10;;;;;;;7.60;4.20;;;;;;;11.77;42.20;150247.94;5058476;28;20053;-65
2023/05/10 05:00:36;;;;;;;7.55;3.95;;;;;;;11.86;40.62;150271.06;5045302;28;20037;-67
2023/05/10 05:03:02;;;;;;;7.90;3.83;;;;;;;11.92;39.19;150286.44;5043231;28;20060;-67
2023/05/10 05:05:27;;;;;;;6.45;3.65;;;;;;;11.97;39.36;150298.03;5057477;28;20033;-67
2023/05/10 05:07:53;;;;;;;8.75;4.03;;;;;;;12.07;39.54;150323.69;5063029;28;20033;-67
2023/05/10 05:10:18;;;;;;;9.02;3.58;;;;;;;12.08;38.80;150327.59;5062264;28;20035;-67
2023/05/10 05:12:44;;;;;;;7.72;3.80;;;;;;;12.20;38.13;150355.81;5062468;28;20303;-68
2023/05/10 05:15:10;;;;;;;7.75;3.72;;;;;;;12.21;37.26;150359.69;5062934;28;20033;-65
2023/05/10 05:17:36;;;;;;;9.02;3.97;;;;;;;12.28;37.59;150376.34;5062171;28;20070;-66
2023/05/10 05:20:03;;;;;;;6.95;3.78;;;;;;;12.18;37.72;150351.94;5062705;28;20060;-67
2023/05/10 05:22:29;;;;;;;8.02;4.20;;;;;;;12.40;37.25;150407.19;5051736;28;20088;-65
2023/05/10 05:24:56;;;;;;;15.90;5.13;;;;;;;12.53;39.28;150439.28;5027614;28;20052;-65
2023/05/10 05:27:24;;;;;;;4.40;3.30;;;;;;;12.60;37.65;150457.28;5062431;28;20100;-65
2023/05/10 05:29:50;;;;;;;15.05;4.32;;;;;;;12.73;39.09;150488.13;5057125;28;20040;-65
2023/05/10 05:32:16;;;;;;;20.88;4.90;;;;;;;12.77;37.63;150499.66;5042503;28;20113;-65
2023/05/10 05:34:44;;;;;;;15.02;3.58;;;;;;;12.80;36.42;150504.78;5049424;28;20253;-66
2023/05/10 05:37:16;;;;;;;9.02;4.13;;;;;;;12.95;35.36;150543.34;5061697;28;20024;-66
2023/05/10 05:39:42;;;;;;;6.07;3.42;;;;;;;13.02;34.67;150561.31;5066948;28;20028;-65
2023/05/10 05:42:09;;;;;;;7.43;3.22;;;;;;;13.06;35.30;150570.34;5062101;28;20321;-65
2023/05/10 05:44:35;;;;;;;6.15;3.42;;;;;;;13.22;34.66;150610.16;5047931;28;20033;-66
2023/05/10 05:47:00;;;;;;;10.02;3.50;;;;;;;13.22;35.82;150610.16;5051270;28;20120;-65
2023/05/10 05:49:26;;;;;;;6.63;3.35;;;;;;;13.30;34.97;150630.72;5048174;28;20328;-65
2023/05/10 05:51:52;;;;;;;8.23;3.35;;;;;;;13.43;36.00;150664.16;5060774;28;20040;-68
2023/05/10 05:54:17;;;;;;;8.10;3.13;;;;;;;13.43;35.86;150662.91;5041983;28;20654;-68
2023/05/10 05:56:44;;;;;;;7.47;2.80;;;;;;;13.52;35.09;150686.00;5058375;28;20081;-66
2023/05/10 05:59:10;;;;;;;8.60;3.53;;;;;;;13.55;35.65;150693.75;5032548;28;20096;-67
2023/05/10 06:01:35;;;;;;;6.13;3.00;;;;;;;13.64;35.07;150715.63;5051997;28;20044;-67
2023/05/10 06:04:01;;;;;;;7.38;3.38;;;;;;;13.63;34.22;150713.03;5054165;28;20068;-68
2023/05/10 06:06:27;;;;;;;7.03;3.30;;;;;;;13.77;34.83;150749.00;5071278;28;20052;-66
2023/05/10 06:08:53;;;;;;;5.93;2.38;;;;;;;13.72;33.38;150734.88;5069501;28;20347;-67
2023/05/10 06:11:18;;;;;;;5.68;2.97;;;;;;;13.71;34.21;150733.59;5068478;28;20040;-67
2023/05/10 06:13:44;;;;;;;7.50;2.90;;;;;;;13.61;32.31;150707.84;5069668;28;20056;-67
2023/05/10 06:16:10;;;;;;;6.72;3.15;;;;;;;13.70;32.58;150731.03;5057939;28;20037;-65
2023/05/10 06:18:35;;;;;;;5.28;3.20;;;;;;;13.92;32.83;150785.00;5041860;28;20029;-64
2023/05/10 06:21:01;;;;;;;7.82;2.95;;;;;;;13.93;33.55;150787.59;5061001;28;20094;-67
2023/05/10 06:23:27;;;;;;;7.32;2.92;;;;;;;14.07;33.16;150822.31;5062242;28;20036;-67
2023/05/10 06:25:52;;;;;;;8.30;2.78;;;;;;;13.92;33.53;150786.31;5061508;28;20021;-65
2023/05/10 06:28:18;;;;;;;10.10;3.00;;;;;;;14.18;32.71;150850.59;5056377;28;20034;-66
2023/05/10 06:30:44;;;;;;;7.38;3.33;;;;;;;14.31;31.82;150884.03;5044186;28;20458;-66
2023/05/10 06:33:10;;;;;;;3.75;2.97;;;;;;;14.30;32.47;150881.44;5062119;28;20093;-66
2023/05/10 06:35:36;;;;;;;6.53;2.95;;;;;;;14.39;33.02;150902.03;5061632;28;20029;-65
2023/05/10 06:38:02;;;;;;;6.65;2.90;;;;;;;14.39;32.47;150903.28;5061438;28;20033;-65
2023/05/10 06:40:27;;;;;;;6.18;3.10;;;;;;;14.42;32.04;150909.72;5067365;28;20305;-66
2023/05/10 06:42:53;;;;;;;3.95;2.80;;;;;;;14.32;31.28;150886.63;5060475;28;20021;-66
2023/05/10 06:45:19;;;;;;;7.07;2.45;;;;;;;14.44;31.67;150916.19;5061623;28;20097;-67
2023/05/10 06:47:45;;;;;;;4.60;2.70;;;;;;;14.49;30.75;150929.06;5044776;28;20033;-66
2023/05/10 06:50:11;;;;;;;9.77;2.95;;;;;;;14.48;30.94;150926.47;5054938;28;20057;-67
2023/05/10 06:52:37;;;;;;;4.20;2.40;;;;;;;14.55;30.27;150943.22;5058841;28;20179;-65
2023/05/10 06:55:04;;;;;;;6.95;2.80;;;;;;;14.66;32.08;150970.25;5064710;28;20127;-65
2023/05/10 06:57:30;;;;;;;4.85;2.85;;;;;;;14.62;31.33;150959.94;5064648;28;20037;-66
2023/05/10 06:59:56;;;;;;;5.80;2.75;;;;;;;14.70;32.97;150979.28;5065784;28;20094;-66
2023/05/10 07:02:22;;;;;;;5.25;2.65;;;;;;;14.75;31.40;150992.09;5065089;28;20033;-65
2023/05/10 07:04:48;;;;;;;5.38;2.92;;;;;;;14.67;29.74;150974.09;5047385;28;20052;-66
2023/05/10 07:07:14;;;;;;;5.20;3.08;;;;;;;14.86;31.20;151019.13;5061066;28;20056;-64
2023/05/10 07:09:40;;;;;;;6.07;3.25;;;;;;;15.01;30.99;151059.00;5045313;28;20097;-67
2023/05/10 07:12:06;;;;;;;8.60;3.17;;;;;;;14.97;30.86;151048.72;5063759;28;20029;-68
2023/05/10 07:14:32;;;;;;;6.60;2.40;;;;;;;15.14;31.09;151091.19;5065242;28;20163;-67
2023/05/10 07:16:57;;;;;;;7.93;2.85;;;;;;;15.18;30.00;151100.22;5055268;28;20375;-67
2023/05/10 07:19:23;;;;;;;4.68;2.15;;;;;;;15.22;29.37;151110.50;5050335;28;20032;-68
2023/05/10 07:21:50;;;;;;;3.95;2.72;;;;;;;15.33;29.33;151137.50;5064463;28;20080;-68
2023/05/10 07:24:15;;;;;;;6.20;2.45;;;;;;;15.32;29.81;151136.25;5044584;28;20036;-68
2023/05/10 07:26:41;;;;;;;5.70;2.70;;;;;;;15.41;29.11;151158.13;5060484;28;20024;-68
2023/05/10 07:29:06;;;;;;;4.03;3.15;;;;;;;15.39;29.15;151153.00;5064957;28;20310;-66
2023/05/10 07:31:32;;;;;;;8.93;2.53;;;;;;;15.59;29.66;151203.19;5058304;28;20076;-67
2023/05/10 07:33:57;;;;;;;4.80;2.67;;;;;;;15.49;28.56;151177.41;5046117;28;20025;-67
2023/05/10 07:36:23;;;;;;;4.60;2.58;;;;;;;15.59;29.10;151203.19;5064637;28;20104;-67
2023/05/10 07:38:49;;;;;;;4.07;2.25;;;;;;;15.77;28.47;151248.22;5048021;28;20308;-67
2023/05/10 07:41:15;;;;;;;5.07;2.70;;;;;;;15.63;27.77;151213.44;5070117;28;20020;-67
2023/05/10 07:43:40;;;;;;;6.57;2.53;;;;;;;15.83;28.89;151263.72;5057476;28;20025;-67
2023/05/10 07:46:06;;;;;;;7.68;2.60;;;;;;;15.94;28.51;151290.75;5061705;28;20100;-69
2023/05/10 07:48:31;;;;;;;5.60;2.95;;;;;;;16.13;28.79;151337.09;5069189;28;20031;-69
2023/05/10 07:50:57;;;;;;;3.35;2.22;;;;;;;16.20;29.04;151355.13;5070432;28;20290;-68
2023/05/10 07:53:23;;;;;;;4.78;2.70;;;;;;;16.41;28.89;151406.66;5072932;28;20017;-67
2023/05/10 07:55:57;;;;;;;3.63;2.33;;;;;;;16.37;28.94;151398.94;5072856;28;20029;-68
2023/05/10 07:58:24;;;;;;;6.47;3.13;;;;;;;16.30;27.59;151380.88;5072817;28;20038;-69
2023/05/10 08:00:49;;;;;;;4.38;2.90;;;;;;;16.25;28.07;151366.69;5068065;28;20037;-67
2023/05/10 08:03:15;;;;;;;4.15;2.60;;;;;;;16.32;28.75;151384.78;5070992;28;20076;-68
2023/05/10 08:05:41;;;;;;;4.53;2.60;;;;;;;16.33;28.25;151387.31;5069731;28;20791;-69
2023/05/10 08:08:06;;;;;;;6.05;3.00;;;;;;;16.35;27.75;151393.78;5034884;28;20321;-68
2023/05/10 08:10:32;;;;;;;7.10;2.85;;;;;;;16.45;28.70;151416.97;5070281;28;20024;-69
2023/05/10 08:13:01;;;;;;;5.20;2.53;;;;;;;16.34;27.48;151391.19;5071969;28;20033;-69
2023/05/10 08:15:26;;;;;;;5.95;2.40;;;;;;;16.45;28.22;151416.97;5072980;28;20036;-69
2023/05/10 08:17:52;;;;;;;7.85;2.40;;;;;;;16.47;28.11;151423.38;5070682;28;20473;-68
2023/05/10 08:20:18;;;;;;;5.00;2.65;;;;;;;16.62;28.42;151460.75;5071151;28;20261;-69
2023/05/10 08:22:47;;;;;;;4.32;2.35;;;;;;;16.69;28.68;151478.78;5051230;28;20217;-67
2023/05/10 08:25:13;;;;;;;3.90;2.20;;;;;;;16.72;27.65;151486.50;5069141;28;20079;-68
2023/05/10 08:27:38;;;;;;;3.88;2.05;;;;;;;16.36;26.46;151396.34;5072946;28;20021;-68
2023/05/10 08:30:04;;;;;;;5.13;2.65;;;;;;;16.55;27.40;151442.72;5069582;28;20347;-67
2023/05/10 08:32:31;;;;;;;3.92;2.13;;;;;;;16.73;27.74;151489.09;5069226;28;20280;-67
2023/05/10 08:34:56;;;;;;;2.90;2.45;;;;;;;16.83;26.99;151512.28;5057806;28;20026;-66
2023/05/10 08:37:25;;;;;;;5.10;2.65;;;;;;;17.01;26.93;151558.69;5060123;28;20036;-67
2023/05/10 08:39:51;;;;;;;4.15;2.53;;;;;;;17.08;26.53;151575.47;5071957;28;20098;-67
2023/05/10 08:42:21;;;;;;;5.40;2.08;;;;;;;17.02;26.39;151560.03;5063089;28;20253;-68
2023/05/10 08:44:48;;;;;;;2.88;2.50;;;;;;;17.22;26.51;151610.28;5063669;28;20029;-68
2023/05/10 08:47:16;;;;;;;3.88;2.38;;;;;;;17.45;26.65;151667.00;5038814;28;20025;-68
2023/05/10 08:49:44;;;;;;;5.20;2.33;;;;;;;17.59;26.12;151704.34;5050589;28;20029;-67
2023/05/10 08:52:13;;;;;;;5.93;2.30;;;;;;;17.64;26.21;151715.94;5060175;28;20227;-69
2023/05/10 08:54:38;;;;;;;6.25;2.50;;;;;;;17.96;26.10;151795.94;5043433;28;20087;-67
2023/05/10 08:57:04;;;;;;;2.58;1.90;;;;;;;18.11;26.58;151834.63;5061303;28;20241;-68
2023/05/10 08:59:30;;;;;;;4.50;2.65;;;;;;;18.09;26.44;151829.44;5068405;28;20099;-68
2023/05/10 09:01:58;;;;;;;4.82;2.80;;;;;;;17.92;25.92;151786.91;5062561;28;20096;-69
2023/05/10 09:04:24;;;;;;;7.93;2.67;;;;;;;17.88;26.11;151775.25;5062585;28;20052;-68
2023/05/10 09:06:50;;;;;;;12.25;4.18;;;;;;;17.53;26.65;151688.91;5062225;28;20116;-68
2023/05/10 09:09:17;;;;;;;5.88;2.58;;;;;;;17.40;25.80;151656.69;5062040;28;20024;-67
2023/05/10 09:11:44;;;;;;;2.67;2.40;;;;;;;17.72;26.53;151736.56;5061707;28;20313;-69
2023/05/10 09:14:12;;;;;;;4.18;2.00;;;;;;;17.53;25.20;151688.91;5052471;28;20064;-68
2023/05/10 09:16:37;;;;;;;4.53;2.40;;;;;;;17.65;27.30;151718.53;5047954;28;20029;-68
2023/05/10 09:19:03;;;;;;;5.15;2.40;;;;;;;17.68;26.23;151724.97;5062599;28;20040;-68
2023/05/10 09:21:30;;;;;;;3.75;2.33;;;;;;;17.46;26.35;151669.53;5062628;28;20059;-68
2023/05/10 09:23:56;;;;;;;5.18;2.22;;;;;;;17.44;28.52;151665.66;5046008;28;20029;-68
2023/05/10 09:26:23;;;;;;;2.95;2.10;;;;;;;17.50;28.12;151679.84;5063205;28;20096;-67
2023/05/10 09:28:57;;;;;;;9.55;2.70;;;;;;;17.43;27.41;151663.13;5062840;28;20021;-67
2023/05/10 09:31:25;;;;;;;4.47;1.98;;;;;;;17.14;25.42;151589.66;5058978;28;20093;-68
2023/05/10 09:33:52;;;;;;;5.38;1.92;;;;;;;16.83;25.32;151512.28;5042834;28;20048;-67
2023/05/10 09:36:17;;;;;;;3.25;1.90;;;;;;;16.66;25.84;151471.06;5062341;28;20036;-68
2023/05/10 09:38:57;;;;;;;2.13;1.92;;;;;;;16.52;25.37;151436.28;5048563;28;20075;-67
2023/05/10 09:41:23;;;;;;;3.35;1.80;;;;;;;16.39;26.29;151404.09;5071203;28;20050;-69
2023/05/10 09:43:49;;;;;;;4.13;2.20;;;;;;;16.93;27.41;151536.81;5038956;28;20026;-70
2023/05/10 09:46:16;;;;;;;5.25;2.00;;;;;;;16.96;26.87;151544.53;5057777;28;20560;-71
2023/05/10 09:48:46;;;;;;;3.03;2.25;;;;;;;16.92;26.77;151535.53;5057411;28;20025;-70
2023/05/10 09:51:23;;;;;;;2.70;1.90;;;;;;;16.63;25.89;151463.34;5050358;28;20021;-69
2023/05/10 09:54:08;;;;;;;3.42;2.05;;;;;;;16.55;25.86;151442.72;5028750;28;20233;-70
2023/05/10 09:56:37;;;;;;;3.28;2.20;;;;;;;16.55;27.54;151442.72;5054864;28;20092;-68
2023/05/10 09:59:03;;;;;;;3.75;1.92;;;;;;;16.88;25.91;151525.22;5062068;28;20225;-70
2023/05/10 10:01:29;;;;;;;3.85;2.20;;;;;;;17.16;25.66;151594.78;5061262;28;20029;-70
2023/05/10 10:03:57;;;;;;;2.25;1.75;;;;;;;17.46;26.91;151669.53;5062119;28;20060;-69
2023/05/10 10:06:23;;;;;;;3.58;1.80;;;;;;;17.34;25.79;151641.19;5058459;28;20064;-71
2023/05/10 10:08:49;;;;;;;3.97;1.90;;;;;;;16.98;24.98;151550.97;5061842;28;20053;-71
2023/05/10 10:11:15;;;;;;;3.60;1.90;;;;;;;17.23;25.42;151614.13;5061415;28;20051;-71
2023/05/10 10:13:41;;;;;;;5.05;1.98;;;;;;;17.56;26.37;151696.63;5060210;28;20276;-70
2023/05/10 10:16:08;;;;;;;4.05;1.90;;;;;;;17.63;25.38;151712.06;5046832;28;20052;-70
2023/05/10 10:18:38;;;;;;;3.03;2.00;;;;;;;17.55;26.43;151692.75;5061858;28;20040;-70
2023/05/10 10:21:06;;;;;;;4.85;2.17;;;;;;;17.49;25.98;151678.56;5061606;28;20021;-71
2023/05/10 10:23:32;;;;;;;2.22;1.98;;;;;;;17.49;25.83;151677.31;5043951;28;20029;-70
2023/05/10 10:25:59;;;;;;;5.53;2.20;;;;;;;17.46;26.19;151669.53;5065405;28;20067;-69
2023/05/10 10:29:16;;;;;;;6.53;2.40;;;;;;;17.45;25.97;151668.25;5063229;28;20033;-70
2023/05/10 10:31:47;;;;;;;4.75;2.20;;;;;;;17.33;25.91;151637.31;5027410;28;20096;-70
2023/05/10 10:34:29;;;;;;;3.90;2.30;;;;;;;17.30;25.73;151629.59;5063607;28;20052;-71
2023/05/10 10:36:56;;;;;;;6.38;2.45;;;;;;;17.30;26.86;151630.91;5058851;28;20029;-70
2023/05/10 10:39:24;;;;;;;3.45;1.98;;;;;;;17.37;26.64;151648.94;5052697;28;20016;-71
2023/05/10 10:41:57;;;;;;;4.97;2.05;;;;;;;17.52;26.79;151686.31;5070226;28;20123;-70
2023/05/10 10:44:25;;;;;;;7.57;2.65;;;;;;;17.29;27.34;151628.31;5065528;28;20047;-70
2023/05/10 10:47:18;;;;;;;4.22;2.15;;;;;;;17.20;25.49;151605.09;5059359;28;20035;-70
2023/05/10 10:50:04;;;;;;;5.07;2.13;;;;;;;17.19;26.23;151603.81;5065558;28;20025;-69
2023/05/10 10:52:35;;;;;;;4.00;2.30;;;;;;;17.41;26.85;151659.25;5061232;28;20025;-70
2023/05/10 10:55:12;;;;;;;2.75;2.00;;;;;;;17.40;26.90;151656.69;5064637;28;20201;-69
2023/05/10 10:57:44;;;;;;;3.50;1.90;;;;;;;17.53;28.19;151688.91;5064650;28;20033;-72
2023/05/10 11:00:23;;;;;;;;;;;;;;;17.45;26.96;151667.00;5064213;28;20041;-70
2023/05/10 11:03:08;;;;;;;2.50;1.90;;;;;;;17.48;27.54;151675.97;5055235;28;19904;-70
2023/05/10 11:05:39;;;;;;;2.00;1.80;;;;;;;17.56;27.48;151695.34;5063422;28;20079;-70
2023/05/10 11:08:10;;;;;;;3.22;1.80;;;;;;;17.56;27.53;151695.34;5064748;28;20038;-71
2023/05/10 11:10:36;;;;;;;5.35;1.90;;;;;;;17.51;26.42;151683.72;5064293;28;20082;-69
2023/05/10 11:13:06;;;;;;;4.95;1.88;;;;;;;16.99;25.68;151552.28;5064254;28;20098;-70
2023/05/10 11:15:37;;;;;;;4.18;1.67;;;;;;;17.24;25.91;151615.41;5064224;28;20424;-70
2023/05/10 11:18:27;;;;;;;6.23;2.20;;;;;;;17.20;26.18;151605.09;5064915;28;20033;-71
2023/05/10 11:20:55;;;;;;;3.58;2.00;;;;;;;17.14;25.97;151590.91;5064095;28;20087;-71
2023/05/10 11:23:21;;;;;;;3.90;2.00;;;;;;;17.15;27.54;151592.22;5064657;28;20037;-71
2023/05/10 11:25:48;;;;;;;4.95;2.10;;;;;;;17.31;26.81;151633.44;5063742;28;20328;-71
2023/05/10 11:28:14;;;;;;;4.18;2.13;;;;;;;17.21;26.40;151607.69;5071385;28;20062;-71